createdAt,value
2023-03-19T00:04:46.868Z,12.49
2023-03-19T00:09:52.265Z,12.38
2023-03-19T00:14:57.855Z,12.20
2023-03-19T00:20:03.630Z,12.09
2023-03-19T00:25:10.190Z,11.99
2023-03-19T00:30:16.349Z,11.95
2023-03-19T00:35:21.944Z,11.88
2023-03-19T00:40:27.542Z,11.84
2023-03-19T00:45:33.482Z,11.86
2023-03-19T00:50:40.434Z,11.81
2023-03-19T00:55:47.471Z,11.64
2023-03-19T01:00:57.010Z,11.38
2023-03-19T01:06:02.781Z,11.40
2023-03-19T01:11:14.688Z,11.48
2023-03-19T01:16:20.513Z,11.41
2023-03-19T01:21:27.478Z,11.38
2023-03-19T01:26:32.994Z,11.32
2023-03-19T01:31:40.477Z,11.28
2023-03-19T01:36:50.680Z,11.18
2023-03-19T01:41:59.424Z,11.08
2023-03-19T01:47:09.558Z,10.99
2023-03-19T01:52:17.584Z,10.94
2023-03-19T01:57:29.524Z,10.88
2023-03-19T02:02:52.471Z,10.83
2023-03-19T02:08:05.482Z,10.64
2023-03-19T02:13:11.751Z,10.49
2023-03-19T02:18:19.992Z,10.50
2023-03-19T02:23:31.168Z,10.45
2023-03-19T02:28:41.354Z,10.38
2023-03-19T02:34:02.533Z,10.39
2023-03-19T02:39:11.193Z,10.22
2023-03-19T02:44:18.467Z,10.23
2023-03-19T02:49:24.844Z,10.22
2023-03-19T02:54:30.851Z,9.98
2023-03-19T02:59:36.457Z,9.99
2023-03-19T03:04:42.015Z,9.93
2023-03-19T03:09:47.618Z,9.88
2023-03-19T03:14:53.405Z,9.93
2023-03-19T03:19:58.946Z,9.90
2023-03-19T03:25:04.637Z,9.79
2023-03-19T03:30:12.960Z,9.82
2023-03-19T03:35:20.200Z,9.82
2023-03-19T03:40:27.498Z,9.80
2023-03-19T03:45:33.494Z,9.65
2023-03-19T03:50:39.206Z,9.68
2023-03-19T03:55:46.692Z,9.59
2023-03-19T04:00:54.688Z,9.61
2023-03-19T04:06:00.667Z,9.63
2023-03-19T04:11:10.610Z,9.66
2023-03-19T04:16:16.932Z,9.68
2023-03-19T04:21:23.259Z,9.62
2023-03-19T04:26:28.961Z,9.57
2023-03-19T04:31:34.590Z,9.64
2023-03-19T04:36:40.528Z,9.61
2023-03-19T04:41:46.290Z,9.59
2023-03-19T04:46:53.424Z,9.60
2023-03-19T04:51:59.726Z,9.52
2023-03-19T04:57:05.788Z,9.40
2023-03-19T05:02:13.081Z,9.33
2023-03-19T05:07:19.161Z,9.31
2023-03-19T05:12:26.137Z,9.26
2023-03-19T05:17:32.701Z,9.31
2023-03-19T05:22:49.480Z,9.43
2023-03-19T05:27:55.659Z,9.50
2023-03-19T05:33:03.690Z,9.47
2023-03-19T05:38:13.783Z,9.47
2023-03-19T05:43:20.738Z,9.51
2023-03-19T05:48:27.641Z,9.37
2023-03-19T05:53:34.049Z,9.45
2023-03-19T05:58:41.126Z,9.57
2023-03-19T06:03:47.020Z,9.66
2023-03-19T06:08:53.195Z,9.60
2023-03-19T06:14:00.993Z,9.29
2023-03-19T06:19:08.713Z,9.47
2023-03-19T06:24:14.692Z,9.62
2023-03-19T06:29:20.674Z,9.64
2023-03-19T06:34:28.479Z,9.75
2023-03-19T06:39:35.020Z,9.79
2023-03-19T06:44:40.810Z,9.97
2023-03-19T06:49:47.905Z,10.23
2023-03-19T06:54:53.450Z,10.37
2023-03-19T06:59:58.988Z,10.70
2023-03-19T07:05:05.500Z,10.82
2023-03-19T07:10:11.938Z,11.00
2023-03-19T07:15:19.499Z,11.15
2023-03-19T07:20:24.964Z,11.09
2023-03-19T07:25:30.793Z,11.23
2023-03-19T07:30:37.925Z,11.37
2023-03-19T07:35:43.353Z,11.29
2023-03-19T07:41:01.298Z,11.62
2023-03-19T07:45:56.213Z,11.40
2023-03-19T07:51:01.939Z,11.21
2023-03-19T07:56:09.014Z,11.14
2023-03-19T08:01:14.513Z,11.28
2023-03-19T08:06:20.540Z,11.16
2023-03-19T08:11:26.294Z,11.12
2023-03-19T08:16:32.335Z,11.28
2023-03-19T08:21:38.458Z,11.51
2023-03-19T08:26:44.038Z,11.79
2023-03-19T08:31:49.486Z,12.15
2023-03-19T08:36:54.943Z,12.59
2023-03-19T08:42:00.677Z,12.76
2023-03-19T08:47:06.286Z,13.18
2023-03-19T08:52:12.199Z,13.24
2023-03-19T08:57:17.691Z,13.18
2023-03-19T09:02:23.229Z,13.27
2023-03-19T09:07:28.789Z,13.18
2023-03-19T09:12:34.469Z,13.24
2023-03-19T09:17:40.022Z,13.20
2023-03-19T09:22:46.988Z,13.23
2023-03-19T09:27:52.464Z,13.26
2023-03-19T09:32:58.056Z,13.29
2023-03-19T09:38:03.697Z,13.29
2023-03-19T09:43:46.999Z,13.34
2023-03-19T09:48:56.242Z,13.32
2023-03-19T09:54:05.350Z,13.38
2023-03-19T09:59:10.989Z,13.59
2023-03-19T10:04:43.903Z,13.50
2023-03-19T10:10:01.426Z,13.34
2023-03-19T10:15:19.994Z,13.23
2023-03-19T10:20:37.786Z,13.40
2023-03-19T10:25:45.051Z,13.64
2023-03-19T10:30:53.558Z,13.89
2023-03-19T10:36:12.427Z,14.00
2023-03-19T10:41:24.246Z,14.10
2023-03-19T10:46:31.304Z,14.13
2023-03-19T10:51:38.712Z,14.35
2023-03-19T10:56:47.420Z,14.45
2023-03-19T11:01:58.685Z,14.54
2023-03-19T11:07:13.583Z,14.57
2023-03-19T11:12:25.524Z,14.68
2023-03-19T11:17:48.319Z,14.68
2023-03-19T11:22:55.449Z,14.47
2023-03-19T11:28:12.487Z,14.47
2023-03-19T11:33:54.257Z,14.38
2023-03-19T11:39:31.123Z,14.41
2023-03-19T11:45:00.666Z,14.15
2023-03-19T11:50:25.904Z,14.03
2023-03-19T11:55:51.462Z,13.91
2023-03-19T12:01:05.464Z,13.86
2023-03-19T12:06:19.892Z,13.91
2023-03-19T12:11:28.028Z,13.89
2023-03-19T12:16:51.314Z,14.02
2023-03-19T12:22:20.625Z,14.37
2023-03-19T12:27:35.174Z,14.61
2023-03-19T12:33:04.731Z,14.36
2023-03-19T12:38:23.629Z,14.51
2023-03-19T12:43:54.505Z,14.71
2023-03-19T12:49:06.525Z,14.96
2023-03-19T12:54:27.442Z,15.19
2023-03-19T12:59:45.052Z,15.32
2023-03-19T13:05:03.449Z,15.45
2023-03-19T13:10:12.346Z,15.74
2023-03-19T13:15:36.138Z,15.85
2023-03-19T13:20:53.545Z,16.13
2023-03-19T13:26:03.789Z,16.34
2023-03-19T13:31:22.324Z,16.45
2023-03-19T13:36:34.250Z,16.60
2023-03-19T13:41:42.927Z,16.65
2023-03-19T13:46:49.046Z,16.95
2023-03-19T13:52:00.243Z,17.25
2023-03-19T13:57:18.353Z,17.14
2023-03-19T14:02:26.152Z,17.22
2023-03-19T14:07:37.278Z,17.33
2023-03-19T14:12:46.698Z,17.26
2023-03-19T14:17:57.848Z,17.03
2023-03-19T14:23:17.955Z,17.34
2023-03-19T14:28:29.518Z,17.58
2023-03-19T14:33:47.076Z,17.69
2023-03-19T14:39:01.280Z,17.42
2023-03-19T14:44:12.755Z,17.72
2023-03-19T14:49:45.463Z,17.48
2023-03-19T14:54:53.934Z,17.43
2023-03-19T15:00:00.107Z,17.56
2023-03-19T15:05:25.516Z,17.62
2023-03-19T15:10:52.458Z,17.51
2023-03-19T15:16:07.235Z,17.33
2023-03-19T15:21:13.172Z,17.13
2023-03-19T15:26:22.745Z,17.15
2023-03-19T15:31:53.944Z,17.19
2023-03-19T15:36:58.191Z,17.07
2023-03-19T15:42:06.212Z,17.13
2023-03-19T15:47:14.874Z,17.24
2023-03-19T15:52:21.584Z,17.11
2023-03-19T15:57:27.621Z,17.07
2023-03-19T16:02:35.696Z,17.09
2023-03-19T16:07:45.463Z,17.06
2023-03-19T16:12:51.307Z,17.04
2023-03-19T16:17:57.075Z,17.15
2023-03-19T16:23:02.954Z,17.23
2023-03-19T16:28:11.397Z,17.31
2023-03-19T16:33:18.087Z,17.21
2023-03-19T16:38:28.477Z,17.09
2023-03-19T16:43:36.546Z,16.81
2023-03-19T16:48:42.025Z,16.70
2023-03-19T16:53:49.436Z,16.50
2023-03-19T16:58:55.047Z,16.31
2023-03-19T17:04:01.712Z,16.10
2023-03-19T17:09:07.228Z,15.91
2023-03-19T17:14:18.721Z,15.66
2023-03-19T17:19:27.251Z,15.45
2023-03-19T17:24:34.759Z,15.29
2023-03-19T17:29:40.367Z,15.07
2023-03-19T17:34:46.048Z,14.74
2023-03-19T17:39:51.979Z,14.55
2023-03-19T17:44:59.046Z,14.28
2023-03-19T17:50:06.824Z,14.11
2023-03-19T17:55:20.969Z,14.04
2023-03-19T18:00:26.553Z,13.93
2023-03-19T18:05:32.357Z,13.84
2023-03-19T18:10:37.933Z,13.72
2023-03-19T18:15:45.945Z,13.50
2023-03-19T18:20:52.097Z,13.38
2023-03-19T18:25:57.669Z,13.24
2023-03-19T18:31:03.416Z,13.18
2023-03-19T18:36:09.731Z,13.09
2023-03-19T18:41:20.624Z,13.09
2023-03-19T18:46:30.827Z,13.12
2023-03-19T18:51:36.548Z,13.03
2023-03-19T18:56:43.148Z,12.89
2023-03-19T19:01:49.817Z,12.80
2023-03-19T19:06:56.083Z,12.61
2023-03-19T19:12:02.078Z,12.55
2023-03-19T19:17:07.850Z,12.42
2023-03-19T19:22:18.839Z,12.29
2023-03-19T19:27:26.868Z,12.25
2023-03-19T19:32:33.001Z,12.15
2023-03-19T19:37:38.638Z,12.11
2023-03-19T19:42:46.252Z,12.02
2023-03-19T19:47:52.083Z,11.90
2023-03-19T19:52:59.526Z,11.86
2023-03-19T19:58:08.683Z,11.84
2023-03-19T20:03:23.294Z,11.85
2023-03-19T20:08:29.074Z,11.89
2023-03-19T20:13:36.665Z,11.98
2023-03-19T20:18:43.832Z,12.01
2023-03-19T20:23:51.467Z,12.01
2023-03-19T20:28:57.179Z,11.99
2023-03-19T20:34:02.797Z,11.89
2023-03-19T20:39:08.283Z,11.78
2023-03-19T20:44:16.735Z,11.76
2023-03-19T20:49:22.804Z,11.82
2023-03-19T20:54:28.798Z,11.74
2023-03-19T20:59:34.365Z,11.82
2023-03-19T21:04:39.844Z,11.84
2023-03-19T21:09:45.369Z,11.90
2023-03-19T21:14:50.835Z,11.97
2023-03-19T21:19:57.554Z,11.99
2023-03-19T21:25:06.232Z,12.09
2023-03-19T21:30:14.782Z,12.11
2023-03-19T21:35:25.798Z,12.10
2023-03-19T21:40:32.231Z,12.22
2023-03-19T21:45:38.169Z,12.37
2023-03-19T21:50:43.852Z,12.48
2023-03-19T21:55:51.158Z,12.55
2023-03-19T22:00:57.337Z,12.66
2023-03-19T22:06:02.820Z,12.70
2023-03-19T22:11:11.324Z,12.62
2023-03-19T22:16:23.270Z,12.56
2023-03-19T22:21:33.282Z,12.39
2023-03-19T22:26:41.748Z,12.30
2023-03-19T22:31:49.380Z,12.36
2023-03-19T22:36:55.868Z,12.45
2023-03-19T22:42:01.466Z,12.51
2023-03-19T22:47:07.393Z,12.52
2023-03-19T22:52:14.065Z,12.56
2023-03-19T22:57:19.479Z,12.53
2023-03-19T23:02:25.103Z,12.58
2023-03-19T23:07:30.570Z,12.55
2023-03-19T23:12:36.046Z,12.56
2023-03-19T23:17:42.282Z,12.34
2023-03-19T23:22:48.112Z,12.24
2023-03-19T23:27:56.156Z,12.06
2023-03-19T23:33:04.320Z,12.00
2023-03-19T23:38:11.629Z,11.91
2023-03-19T23:43:20.505Z,11.86
2023-03-19T23:48:41.371Z,11.83
2023-03-19T23:53:47.019Z,11.78
